Time;durP1;ratioP1;P1;durP2;ratioP2;P2;SDS_P1;SDS_P2;PMS_P1;PMS_P2;Temp;Humidity;BMP_temperature;BMP_pressure;BME280_temperature;BME280_humidity;BME280_pressure;Samples;Min_cycle;Max_cycle;Signal;HPM_P1;HPM_P2
2023/05/02 00:01:32;;;;;;;;;;;;;;;7.47;58.74;101295.59;5072088;28;20501;-67
2023/05/02 00:03:58;;;;;;;;;;;;;;;7.49;58.64;101293.63;5071577;28;19917;-68
2023/05/02 00:06:23;;;;;;;;;;;;;;;7.50;58.79;101290.03;5072629;28;20366;-69
2023/05/02 00:08:49;;;;;;;;;;;;;;;7.48;59.68;101294.63;5072557;28;19919;-69
2023/05/02 00:11:14;;;;;;;;;;;;;;;7.50;59.61;101295.31;5072262;28;19912;-69
2023/05/02 00:13:40;;;;;;;;;;;;;;;7.50;60.50;101294.47;5072506;28;19924;-68
2023/05/02 00:16:05;;;;;;;;;;;;;;;7.46;61.54;101300.03;5072463;28;19935;-69
2023/05/02 00:18:31;;;;;;;;;;;;;;;7.43;63.39;101299.47;5072308;28;20027;-68
2023/05/02 00:20:56;;;;;;;;;;;;;;;7.40;64.58;101294.44;5072679;28;20416;-68
2023/05/02 00:23:21;;;;;;;;;;;;;;;7.32;66.04;101291.59;5072371;28;20372;-66
2023/05/02 00:25:47;;;;;;;;;;;;;;;7.26;66.34;101289.47;5072322;28;20414;-68
2023/05/02 00:28:12;;;;;;;;;;;;;;;7.19;68.90;101286.47;5072255;28;19912;-69
2023/05/02 00:30:42;;;;;;;;;;;;;;;7.15;67.56;101277.94;5072357;28;19913;-68
2023/05/02 00:33:08;;;;;;;;;;;;;;;7.12;68.61;101280.84;5072288;28;19913;-68
2023/05/02 00:35:35;;;;;;;;;;;;;;;7.09;72.75;101283.75;5072144;28;19916;-70
2023/05/02 00:38:00;;;;;;;;;;;;;;;7.04;71.83;101283.28;5072701;28;20392;-70
2023/05/02 00:40:26;;;;;;;;;;;;;;;6.99;74.01;101280.19;5072222;28;20352;-69
2023/05/02 00:42:51;;;;;;;;;;;;;;;6.97;73.50;101281.28;5070921;28;19935;-68
2023/05/02 00:45:20;;;;;;;;;;;;;;;6.95;75.95;101278.75;5071821;28;20478;-68
2023/05/02 00:47:46;;;;;;;;;;;;;;;6.94;75.87;101277.09;5071936;28;20271;-69
2023/05/02 00:50:11;;;;;;;;;;;;;;;6.92;76.18;101289.59;5072627;28;19916;-68
2023/05/02 00:52:37;;;;;;;;;;;;;;;6.87;77.66;101275.88;5051990;28;19927;-67
2023/05/02 00:55:02;;;;;;;;;;;;;;;6.89;77.46;101275.75;5071489;28;19962;-69
2023/05/02 00:57:29;;;;;;;;;;;;;;;6.84;78.68;101276.13;5072005;28;20002;-68
2023/05/02 00:59:55;;;;;;;;;;;;;;;6.75;81.36;101272.44;5071652;28;19912;-69
2023/05/02 01:02:33;;;;;;;;;;;;;;;6.69;81.98;101278.25;5072039;28;19913;-69
2023/05/02 01:05:09;;;;;;;;;;;;;;;6.74;81.12;101272.56;5071779;28;19912;-69
2023/05/02 01:07:43;;;;;;;;;;;;;;;6.73;81.64;101278.84;5071786;28;19913;-67
2023/05/02 01:10:08;;;;;;;;;;;;;;;6.69;83.16;101261.53;5069322;28;19958;-69
2023/05/02 01:12:41;;;;;;;;;;;;;;;6.67;85.05;101266.94;5071749;28;19916;-69
2023/05/02 01:15:09;;;;;;;;;;;;;;;6.58;86.20;101269.47;5071568;28;19912;-69
2023/05/02 01:17:36;;;;;;;;;;;;;;;6.52;85.18;101266.38;5071537;28;19912;-69
2023/05/02 01:20:03;;;;;;;;;;;;;;;6.49;87.65;101276.38;5071515;28;20011;-68
2023/05/02 01:22:30;;;;;;;;;;;;;;;6.45;88.80;101259.91;5071864;28;20011;-68
2023/05/02 01:24:58;;;;;;;;;;;;;;;6.46;89.97;101266.88;5071592;28;19919;-69
2023/05/02 01:27:26;;;;;;;;;;;;;;;6.47;89.80;101263.25;5071827;28;19916;-68
2023/05/02 01:29:52;;;;;;;;;;;;;;;6.47;88.16;101262.41;5071278;28;19951;-68
2023/05/02 01:32:19;;;;;;;;;;;;;;;6.45;90.62;101259.91;5071951;28;19952;-69
2023/05/02 01:34:46;;;;;;;;;;;;;;;6.44;90.19;101258.22;5070710;28;19912;-70
2023/05/02 01:37:12;;;;;;;;;;;;;;;6.38;93.23;101266.66;5071658;28;19961;-70
2023/05/02 01:39:39;;;;;;;;;;;;;;;6.38;91.52;101269.31;5071904;28;19912;-69
2023/05/02 01:42:04;;;;;;;;;;;;;;;6.36;94.05;101265.94;5071792;28;19919;-70
2023/05/02 01:44:32;;;;;;;;;;;;;;;6.30;96.18;101261.13;5071677;28;19914;-69
2023/05/02 01:46:59;;;;;;;;;;;;;;;6.25;95.22;101263.28;5070916;28;19916;-69
2023/05/02 01:49:25;;;;;;;;;;;;;;;6.26;95.40;101270.25;5071693;28;19939;-70
2023/05/02 01:51:51;;;;;;;;;;;;;;;6.25;95.15;101265.94;5071696;28;19912;-69
2023/05/02 01:54:19;;;;;;;;;;;;;;;6.20;95.39;101260.19;5072099;28;19918;-70
2023/05/02 01:56:45;;;;;;;;;;;;;;;6.11;96.50;101263.56;5071927;28;19963;-70
2023/05/02 01:59:13;;;;;;;;;;;;;;;6.11;96.10;101263.56;5074010;28;19938;-69
2023/05/02 02:01:38;;;;;;;;;;;;;;;6.12;96.61;101263.44;5075274;28;19919;-69
2023/05/02 02:04:05;;;;;;;;;;;;;;;6.12;98.53;101262.59;5075168;28;19925;-70
2023/05/02 02:06:31;;;;;;;;;;;;;;;6.08;97.85;101261.16;5075109;28;19919;-68
2023/05/02 02:08:57;;;;;;;;;;;;;;;6.06;99.13;101260.41;5075234;28;19913;-69
2023/05/02 02:11:39;;;;;;;;;;;;;;;6.04;98.68;101262.34;5074921;28;19912;-69
2023/05/02 02:14:06;;;;;;;;;;;;;;;6.03;98.30;101269.44;5074568;28;20387;-68
2023/05/02 02:16:54;;;;;;;;;;;;;;;5.96;100.00;101267.41;5074420;28;20339;-71
2023/05/02 02:19:20;;;;;;;;;;;;;;;5.95;100.00;101266.56;5075197;28;19967;-68
2023/05/02 02:21:46;;;;;;;;;;;;;;;5.95;100.00;101261.28;5075326;28;20390;-69
2023/05/02 02:24:13;;;;;;;;;;;;;;;5.92;100.00;101260.69;5075904;28;19920;-70
2023/05/02 02:26:38;;;;;;;;;;;;;;;5.84;100.00;101267.38;5075712;28;20394;-69
2023/05/02 02:29:04;;;;;;;;;;;;;;;5.81;100.00;101264.97;5074852;28;19917;-68
2023/05/02 02:31:33;;;;;;;;;;;;;;;5.83;100.00;101265.69;5074701;28;19912;-70
2023/05/02 02:33:58;;;;;;;;;;;;;;;5.82;100.00;101265.81;5076146;28;19958;-70
2023/05/02 02:36:29;;;;;;;;;;;;;;;5.84;100.00;101266.53;5056600;28;19921;-69
2023/05/02 02:39:13;;;;;;;;;;;;;;;5.84;100.00;101269.19;5074671;28;19938;-69
2023/05/02 02:41:42;;;;;;;;;;;;;;;5.78;100.00;101273.16;5075318;28;19913;-69
2023/05/02 02:44:26;;;;;;;;;;;;;;;5.77;100.00;101284.66;5075026;28;20417;-70
2023/05/02 02:47:10;;;;;;;;;;;;;;;5.75;100.00;101286.56;5075474;28;19959;-69
2023/05/02 02:49:54;;;;;;;;;;;;;;;5.72;100.00;101286.81;5074702;28;19916;-69
2023/05/02 02:52:24;;;;;;;;;;;;;;;5.67;100.00;101291.63;5074484;28;20360;-68
2023/05/02 02:54:57;;;;;;;;;;;;;;;5.63;100.00;101282.25;5074474;28;20355;-70
2023/05/02 02:57:36;;;;;;;;;;;;;;;5.55;100.00;101276.72;5075330;28;19920;-69
2023/05/02 03:00:07;;;;;;;;;;;;;;;5.47;100.00;101255.31;5074469;28;19919;-69
2023/05/02 03:02:34;;;;;;;;;;;;;;;5.44;100.00;101244.97;5074314;28;19912;-70
2023/05/02 03:05:01;;;;;;;;;;;;;;;5.50;100.00;101250.66;5073099;28;19912;-69
2023/05/02 03:07:28;;;;;;;;;;;;;;;5.57;100.00;101251.03;5074304;28;19912;-68
2023/05/02 03:09:53;;;;;;;;;;;;;;;5.62;100.00;101234.81;5073978;28;20011;-70
2023/05/02 03:12:19;;;;;;;;;;;;;;;5.67;100.00;101240.56;5074228;28;19912;-70
2023/05/02 03:14:45;;;;;;;;;;;;;;;5.72;100.00;101238.41;5074391;28;19912;-69
2023/05/02 03:17:11;;;;;;;;;;;;;;;5.78;100.00;101232.63;5073959;28;19939;-70
2023/05/02 03:19:36;;;;;;;;;;;;;;;5.77;100.00;101231.78;5074150;28;19959;-70
2023/05/02 03:22:02;;;;;;;;;;;;;;;5.72;100.00;101223.38;5073959;28;20015;-68
2023/05/02 03:24:27;;;;;;;;;;;;;;;5.72;100.00;101223.38;5073756;28;19937;-69
2023/05/02 03:26:56;;;;;;;;;;;;;;;5.80;100.00;101231.59;5073871;28;20125;-68
2023/05/02 03:29:22;;;;;;;;;;;;;;;5.85;100.00;101226.78;5073726;28;19962;-69
2023/05/02 03:31:47;;;;;;;;;;;;;;;5.88;100.00;101231.81;5074029;28;19955;-69
2023/05/02 03:34:12;;;;;;;;;;;;;;;5.88;100.00;101230.97;5072193;28;19956;-69
2023/05/02 03:36:39;;;;;;;;;;;;;;;5.90;100.00;101226.44;5073721;28;19916;-69
2023/05/02 03:39:05;;;;;;;;;;;;;;;5.95;100.00;101229.56;5072105;28;19919;-69
2023/05/02 03:41:30;;;;;;;;;;;;;;;5.91;100.00;101230.75;5073421;28;20018;-69
2023/05/02 03:43:56;;;;;;;;;;;;;;;5.94;100.00;101237.59;5073541;28;19977;-69
2023/05/02 03:46:22;;;;;;;;;;;;;;;5.98;100.00;101244.34;5073545;28;20054;-70
2023/05/02 03:48:47;;;;;;;;;;;;;;;6.01;100.00;101246.72;5073558;28;19959;-70
2023/05/02 03:51:13;;;;;;;;;;;;;;;6.04;100.00;101238.56;5073622;28;19924;-69
2023/05/02 03:53:38;;;;;;;;;;;;;;;6.05;100.00;101235.78;5073531;28;19982;-69
2023/05/02 03:56:04;;;;;;;;;;;;;;;6.05;100.00;101238.44;5072588;28;20280;-69
2023/05/02 03:58:29;;;;;;;;;;;;;;;6.02;100.00;101236.03;5073499;28;19920;-69
2023/05/02 04:00:55;;;;;;;;;;;;;;;6.04;100.00;101236.75;5075091;28;20010;-69
2023/05/02 04:03:21;;;;;;;;;;;;;;;6.09;100.00;101241.69;5073560;28;20352;-68
2023/05/02 04:05:46;;;;;;;;;;;;;;;6.16;100.00;101227.00;5073392;28;20364;-69
2023/05/02 04:08:12;;;;;;;;;;;;;;;6.13;100.00;101224.63;5073436;28;19920;-69
2023/05/02 04:10:38;;;;;;;;;;;;;;;6.15;100.00;101220.03;5075699;28;19913;-68
2023/05/02 04:13:03;;;;;;;;;;;;;;;6.17;100.00;101213.66;5079271;28;19921;-69
2023/05/02 04:15:29;;;;;;;;;;;;;;;6.24;100.00;101214.00;5081310;28;19912;-68
2023/05/02 04:17:56;;;;;;;;;;;;;;;6.33;100.00;101221.19;5077615;28;19936;-69
2023/05/02 04:20:22;;;;;;;;;;;;;;;6.43;100.00;101222.16;5073969;28;19912;-69
2023/05/02 04:22:49;;;;;;;;;;;;;;;6.52;100.00;101217.91;5081771;28;19912;-68
2023/05/02 04:25:14;;;;;;;;;;;;;;;6.61;100.00;101211.84;5083546;28;20054;-70
2023/05/02 04:27:39;;;;;;;;;;;;;;;6.71;100.00;101199.56;5085478;28;19912;-71
2023/05/02 04:30:05;;;;;;;;;;;;;;;6.75;100.00;101200.97;5073829;28;19997;-68
2023/05/02 04:32:30;;;;;;;;;;;;;;;6.79;100.00;101201.56;5073343;28;20336;-70
2023/05/02 04:34:56;;;;;;;;;;;;;;;6.87;100.00;101200.91;5072590;28;19918;-68
2023/05/02 04:37:22;;;;;;;;;;;;;;;7.02;100.00;101205.78;5073549;28;19916;-68
2023/05/02 04:39:47;;;;;;;;;;;;;;;7.10;100.00;101198.03;5073157;28;19919;-68
2023/05/02 04:42:13;;;;;;;;;;;;;;;7.23;99.95;101204.91;5073312;28;19919;-69
2023/05/02 04:44:38;;;;;;;;;;;;;;;7.30;99.08;101200.81;5074653;28;19920;-71
2023/05/02 04:47:03;;;;;;;;;;;;;;;7.35;98.37;101190.66;5075056;28;20381;-68
2023/05/02 04:49:29;;;;;;;;;;;;;;;7.45;99.08;101186.22;5072708;28;19923;-68
2023/05/02 04:51:55;;;;;;;;;;;;;;;7.62;98.02;101171.53;5072468;28;19912;-68
2023/05/02 04:54:20;;;;;;;;;;;;;;;7.78;96.40;101172.69;5072360;28;19912;-67
2023/05/02 04:56:46;;;;;;;;;;;;;;;7.94;95.67;101158.09;5072165;28;19919;-68
2023/05/02 04:59:12;;;;;;;;;;;;;;;8.18;94.84;101155.91;5072226;28;19956;-67
2023/05/02 05:01:37;;;;;;;;;;;;;;;8.32;93.96;101150.19;5072636;28;20316;-68
2023/05/02 05:04:02;;;;;;;;;;;;;;;8.40;94.25;101148.72;5072258;28;20003;-69
2023/05/02 05:06:28;;;;;;;;;;;;;;;8.48;93.79;101140.88;5070785;28;19930;-70
2023/05/02 05:08:53;;;;;;;;;;;;;;;8.47;93.56;101137.38;5072188;28;19916;-70
2023/05/02 05:11:18;;;;;;;;;;;;;;;8.48;93.62;101143.53;5072023;28;19913;-69
2023/05/02 05:13:43;;;;;;;;;;;;;;;8.48;93.27;101140.88;5071995;28;19912;-69
2023/05/02 05:16:09;;;;;;;;;;;;;;;8.48;93.05;101139.06;5070841;28;19920;-68
2023/05/02 05:18:41;;;;;;;;;;;;;;;8.42;92.54;101138.78;5072123;28;19913;-68
2023/05/02 05:21:06;;;;;;;;;;;;;;;8.36;92.98;101135.69;5072147;28;19966;-68
2023/05/02 05:23:32;;;;;;;;;;;;;;;8.34;93.48;101135.00;5072047;28;19988;-69
2023/05/02 05:25:58;;;;;;;;;;;;;;;8.50;93.57;101134.44;5072146;28;19920;-68
2023/05/02 05:28:23;;;;;;;;;;;;;;;8.62;92.21;101129.81;5072074;28;19913;-68
2023/05/02 05:30:48;;;;;;;;;;;;;;;8.65;91.68;101118.91;5072180;28;19913;-68
2023/05/02 05:33:14;;;;;;;;;;;;;;;8.73;91.65;101121.72;5072086;28;19913;-70
2023/05/02 05:35:39;;;;;;;;;;;;;;;8.72;89.35;101113.91;5076015;28;19916;-69
2023/05/02 05:38:06;;;;;;;;;;;;;;;8.70;90.28;101111.38;5074578;28;19966;-68
2023/05/02 05:40:31;;;;;;;;;;;;;;;8.80;90.25;101120.16;5075476;28;19912;-68
2023/05/02 05:42:56;;;;;;;;;;;;;;;8.91;89.39;101106.72;5075650;28;19927;-67
2023/05/02 05:45:22;;;;;;;;;;;;;;;9.06;88.31;101108.94;5075342;28;19923;-68
2023/05/02 05:47:47;;;;;;;;;;;;;;;9.13;88.14;101102.06;5075523;28;19920;-67
2023/05/02 05:50:12;;;;;;;;;;;;;;;9.13;86.66;101102.06;5075595;28;19912;-68
2023/05/02 05:52:38;;;;;;;;;;;;;;;9.19;84.96;101096.16;5075411;28;19935;-67
2023/05/02 05:55:03;;;;;;;;;;;;;;;9.24;84.38;101100.03;5075068;28;20425;-68
2023/05/02 05:57:30;;;;;;;;;;;;;;;9.23;84.86;101090.41;5075117;28;19961;-67
2023/05/02 05:59:56;;;;;;;;;;;;;;;9.18;84.10;101086.50;5073936;28;20272;-67
2023/05/02 06:02:21;;;;;;;;;;;;;;;9.24;84.45;101093.88;5075747;28;19912;-68
2023/05/02 06:04:47;;;;;;;;;;;;;;;9.25;83.59;101080.47;5075477;28;19913;-67
2023/05/02 06:07:12;;;;;;;;;;;;;;;9.33;84.26;101087.72;5075267;28;20368;-66
2023/05/02 06:09:37;;;;;;;;;;;;;;;9.38;82.96;101088.09;5075141;28;20431;-67
2023/05/02 06:12:03;;;;;;;;;;;;;;;9.37;82.70;101075.81;5073919;28;20016;-67
2023/05/02 06:14:28;;;;;;;;;;;;;;;9.31;82.20;101079.88;5074979;28;19912;-68
2023/05/02 06:16:53;;;;;;;;;;;;;;;9.43;81.69;101072.56;5075138;28;19950;-69
2023/05/02 06:19:19;;;;;;;;;;;;;;;9.50;81.52;101070.13;5074821;28;19925;-68
2023/05/02 06:21:44;;;;;;;;;;;;;;;9.56;81.16;101066.91;5075553;28;20010;-68
2023/05/02 06:24:09;;;;;;;;;;;;;;;9.59;80.81;101062.13;5074632;28;19948;-68
2023/05/02 06:26:35;;;;;;;;;;;;;;;9.77;80.24;101075.44;5074472;28;19912;-68
2023/05/02 06:29:01;;;;;;;;;;;;;;;9.89;79.48;101062.78;5074923;28;19912;-67
2023/05/02 06:31:26;;;;;;;;;;;;;;;10.12;79.29;101045.38;5075172;28;19912;-67
2023/05/02 06:33:52;;;;;;;;;;;;;;;10.45;78.53;101056.31;5074780;28;20383;-68
2023/05/02 06:36:17;;;;;;;;;;;;;;;10.55;75.42;101057.06;5074761;28;19924;-68
2023/05/02 06:38:42;;;;;;;;;;;;;;;10.71;76.27;101054.53;5074692;28;19936;-68
2023/05/02 06:41:14;;;;;;;;;;;;;;;10.72;74.90;101056.19;5073264;28;20310;-68
2023/05/02 06:43:40;;;;;;;;;;;;;;;10.69;73.65;101047.66;5074308;28;20225;-69
2023/05/02 06:46:06;;;;;;;;;;;;;;;10.79;73.66;101045.75;5074782;28;19923;-68
2023/05/02 06:48:31;;;;;;;;;;;;;;;10.71;73.35;101043.03;5074711;28;20334;-69
2023/05/02 06:50:56;;;;;;;;;;;;;;;10.82;74.04;101048.94;5074368;28;20351;-67
2023/05/02 06:53:24;;;;;;;;;;;;;;;11.02;72.68;101038.88;5072945;28;20404;-70
2023/05/02 06:55:49;;;;;;;;;;;;;;;11.03;71.73;101037.91;5074217;28;19938;-69
2023/05/02 06:58:15;;;;;;;;;;;;;;;11.05;71.13;101041.25;5074604;28;19913;-68
2023/05/02 07:00:41;;;;;;;;;;;;;;;10.97;70.98;101038.50;5074389;28;20340;-67
2023/05/02 07:03:06;;;;;;;;;;;;;;;11.01;72.59;101028.38;5074330;28;19920;-67
2023/05/02 07:05:31;;;;;;;;;;;;;;;11.23;72.19;101033.13;5074018;28;19919;-68
2023/05/02 07:07:57;;;;;;;;;;;;;;;11.46;70.93;101030.72;5073849;28;20268;-68
2023/05/02 07:10:22;;;;;;;;;;;;;;;11.60;70.19;101029.28;5073841;28;19913;-67
2023/05/02 07:12:47;;;;;;;;;;;;;;;11.72;69.22;101022.63;5071296;28;20376;-68
2023/05/02 07:15:13;;;;;;;;;;;;;;;11.81;68.91;101031.50;5072722;28;19960;-68
2023/05/02 07:17:38;;;;;;;;;;;;;;;11.87;69.04;101026.38;5072899;28;20275;-67
2023/05/02 07:20:04;;;;;;;;;;;;;;;11.97;67.06;101021.72;5072759;28;20324;-68
2023/05/02 07:22:29;;;;;;;;;;;;;;;11.92;67.46;101009.88;5072775;28;20336;-68
2023/05/02 07:24:59;;;;;;;;;;;;;;;12.02;67.89;101014.03;5071305;28;19939;-68
2023/05/02 07:27:25;;;;;;;;;;;;;;;12.15;65.85;101008.22;5069547;28;19912;-68
2023/05/02 07:29:50;;;;;;;;;;;;;;;12.23;65.52;101002.03;5071003;28;20054;-67
2023/05/02 07:32:16;;;;;;;;;;;;;;;12.32;66.24;100995.69;5071837;28;19932;-67
2023/05/02 07:34:41;;;;;;;;;;;;;;;12.51;65.15;100997.16;5072874;28;19923;-67
2023/05/02 07:37:06;;;;;;;;;;;;;;;12.65;63.40;100986.59;5072787;28;19913;-68
2023/05/02 07:39:32;;;;;;;;;;;;;;;12.74;62.92;100991.97;5069784;28;19925;-69
2023/05/02 07:41:58;;;;;;;;;;;;;;;12.87;62.92;100982.38;5074118;28;20058;-68
2023/05/02 07:44:23;;;;;;;;;;;;;;;13.03;62.48;100984.19;5074595;28;19967;-67
2023/05/02 07:46:48;;;;;;;;;;;;;;;13.12;57.89;100971.59;5072796;28;19917;-68
2023/05/02 07:49:14;;;;;;;;;;;;;;;13.05;56.58;100968.78;5073755;28;19927;-68
2023/05/02 07:51:43;;;;;;;;;;;;;;;13.06;56.08;100975.81;5072163;28;21411;-69
2023/05/02 07:54:34;;;;;;;;;;;;;;;13.26;55.82;100970.88;5070738;28;19923;-68
2023/05/02 07:57:02;;;;;;;;;;;;;;;13.47;54.99;100964.91;5071871;28;19916;-68
2023/05/02 07:59:28;;;;;;;;;;;;;;;13.64;54.71;100969.19;5072629;28;20253;-67
2023/05/02 08:01:53;;;;;;;;;;;;;;;13.85;53.25;100955.94;5072441;28;20001;-69
2023/05/02 08:04:19;;;;;;;;;;;;;;;13.99;52.45;100957.03;5072502;28;19912;-69
2023/05/02 08:06:44;;;;;;;;;;;;;;;13.93;50.77;100949.72;5072989;28;19912;-69
2023/05/02 08:09:09;;;;;;;;;;;;;;;13.96;49.78;100957.41;5072808;28;19913;-67
2023/05/02 08:11:35;;;;;;;;;;;;;;;14.02;49.88;100958.50;5072630;28;19959;-71
2023/05/02 08:14:00;;;;;;;;;;;;;;;14.07;49.63;100943.56;5105526;28;19960;-69
2023/05/02 08:16:25;;;;;;;;;;;;;;;14.02;48.57;100945.97;5072869;28;19948;-70
2023/05/02 08:18:51;;;;;;;;;;;;;;;14.01;49.00;100943.47;5073131;28;19912;-70
2023/05/02 08:21:16;;;;;;;;;;;;;;;14.07;48.93;100940.06;5073128;28;19971;-71
2023/05/02 08:23:41;;;;;;;;;;;;;;;14.13;49.57;100934.78;5073077;28;19913;-73
2023/05/02 08:26:07;;;;;;;;;;;;;;;14.11;47.35;100941.34;5073218;28;20026;-70
2023/05/02 08:28:33;;;;;;;;;;;;;;;14.19;46.76;100933.25;5072901;28;19912;-71
2023/05/02 08:30:58;;;;;;;;;;;;;;;14.35;48.01;100935.78;5093476;28;20347;-71
2023/05/02 08:33:23;;;;;;;;;;;;;;;14.49;46.87;100932.31;5092444;28;20363;-71
2023/05/02 08:35:49;;;;;;;;;;;;;;;14.49;44.96;100935.00;5092549;28;20352;-69
2023/05/02 08:38:17;;;;;;;;;;;;;;;14.48;44.85;100930.66;5093467;28;20393;-70
2023/05/02 08:40:43;;;;;;;;;;;;;;;14.42;44.62;100934.00;5077125;28;19916;-69
2023/05/02 08:43:09;;;;;;;;;;;;;;;14.35;45.02;100933.09;5057440;28;19958;-70
2023/05/02 08:45:39;;;;;;;;;;;;;;;14.38;45.18;100926.53;5068175;28;19966;-69
2023/05/02 08:48:06;;;;;;;;;;;;;;;14.45;44.46;100922.97;5102036;28;19923;-69
2023/05/02 08:50:35;;;;;;;;;;;;;;;14.53;44.20;100927.41;5071779;28;19912;-71
2023/05/02 08:53:03;;;;;;;;;;;;;;;14.59;44.79;100920.47;5052949;28;19920;-71
2023/05/02 08:55:28;;;;;;;;;;;;;;;14.59;44.01;100917.81;5051836;28;19992;-69
2023/05/02 08:57:56;;;;;;;;;;;;;;;14.59;43.42;100920.47;5069750;28;19938;-68
2023/05/02 09:00:21;;;;;;;;;;;;;;;14.74;44.15;100913.25;5072277;28;19917;-71
2023/05/02 09:02:57;;;;;;;;;;;;;;;14.95;43.65;100910.66;5071097;28;20003;-67
2023/05/02 09:05:23;;;;;;;;;;;;;;;15.09;42.47;100912.50;5072123;28;19912;-70
2023/05/02 09:07:49;;;;;;;;;;;;;;;15.21;42.14;100914.66;5060415;28;20400;-68
2023/05/02 09:10:15;;;;;;;;;;;;;;;15.31;42.21;100904.44;5056064;28;19952;-70
2023/05/02 09:12:40;;;;;;;;;;;;;;;15.36;42.30;100902.88;5055930;28;19920;-67
2023/05/02 09:15:12;;;;;;;;;;;;;;;15.41;41.40;100905.81;5055900;28;19912;-69
2023/05/02 09:17:42;;;;;;;;;;;;;;;15.42;41.39;100903.97;5057684;28;20024;-69
2023/05/02 09:20:09;;;;;;;;;;;;;;;15.49;40.30;100902.19;5075709;28;20045;-70
2023/05/02 09:22:34;;;;;;;;;;;;;;;15.50;40.52;100893.94;5075829;28;20398;-70
2023/05/02 09:25:00;;;;;;;;;;;;;;;15.52;40.94;100896.44;5075782;28;19912;-70
2023/05/02 09:27:26;;;;;;;;;;;;;;;15.57;39.63;100896.69;5075803;28;19912;-70
2023/05/02 09:29:51;;;;;;;;;;;;;;;15.65;40.04;100891.22;5075862;28;20005;-68
2023/05/02 09:32:16;;;;;;;;;;;;;;;15.70;39.33;100887.97;5074527;28;19944;-69
2023/05/02 09:35:02;;;;;;;;;;;;;;;15.74;39.20;100895.44;5076072;28;20025;-68
2023/05/02 09:37:34;;;;;;;;;;;;;;;15.79;39.92;100889.47;5070969;28;19917;-68
2023/05/02 09:40:05;;;;;;;;;;;;;;;15.93;38.87;100893.94;5075199;28;20368;-69
2023/05/02 09:42:30;;;;;;;;;;;;;;;16.03;37.83;100890.91;5074158;28;19947;-69
2023/05/02 09:44:55;;;;;;;;;;;;;;;16.14;38.73;100890.38;5075593;28;19952;-69
2023/05/02 09:47:25;;;;;;;;;;;;;;;16.23;38.28;100883.00;5075324;28;19954;-69
2023/05/02 09:49:51;;;;;;;;;;;;;;;16.29;36.17;100887.59;5076029;28;19970;-73
2023/05/02 09:52:17;;;;;;;;;;;;;;;16.29;36.15;100874.16;5076677;28;19916;-69
2023/05/02 09:54:43;;;;;;;;;;;;;;;16.23;36.09;100870.41;5075859;28;20427;-68
2023/05/02 09:57:12;;;;;;;;;;;;;;;16.12;36.45;100865.56;5074857;28;20356;-69
2023/05/02 09:59:45;;;;;;;;;;;;;;;15.96;36.75;100871.25;5091155;28;19971;-69
2023/05/02 10:02:13;;;;;;;;;;;;;;;15.95;37.61;100856.97;5074811;28;20308;-68
2023/05/02 10:04:42;;;;;;;;;;;;;;;16.13;36.85;100872.59;5074527;28;19912;-70
2023/05/02 10:07:09;;;;;;;;;;;;;;;16.34;35.65;100866.31;5075655;28;19920;-69
2023/05/02 10:09:34;;;;;;;;;;;;;;;16.41;36.31;100862.66;5075340;28;20011;-69
2023/05/02 10:12:03;;;;;;;;;;;;;;;16.35;35.34;100855.38;5075344;28;20012;-69
2023/05/02 10:14:30;;;;;;;;;;;;;;;16.36;36.53;100859.72;5074701;28;19919;-69
2023/05/02 10:17:00;;;;;;;;;;;;;;;16.31;35.62;100854.13;5074549;28;19917;-69
2023/05/02 10:19:31;;;;;;;;;;;;;;;16.45;36.84;100843.44;5073290;28;19912;-69
2023/05/02 10:21:57;;;;;;;;;;;;;;;16.54;34.96;100839.56;5074354;28;19917;-69
2023/05/02 10:24:23;;;;;;;;;;;;;;;16.64;35.80;100842.69;5074929;28;19913;-68
2023/05/02 10:26:50;;;;;;;;;;;;;;;16.83;35.19;100842.00;5075163;28;20405;-68
2023/05/02 10:29:15;;;;;;;;;;;;;;;16.75;35.12;100846.69;5073892;28;19996;-69
2023/05/02 10:31:42;;;;;;;;;;;;;;;16.55;34.67;100851.97;5074060;28;19912;-70
2023/05/02 10:34:09;;;;;;;;;;;;;;;16.43;34.70;100851.69;5072326;28;20371;-67
2023/05/02 10:36:35;;;;;;;;;;;;;;;16.38;35.22;100848.78;5073737;28;19952;-67
2023/05/02 10:39:01;;;;;;;;;;;;;;;16.30;33.87;100844.41;5071811;28;19955;-69
2023/05/02 10:41:28;;;;;;;;;;;;;;;16.36;34.21;100846.28;5074651;28;19916;-67
2023/05/02 10:43:53;;;;;;;;;;;;;;;16.42;34.73;100845.47;5074432;28;19920;-67
2023/05/02 10:46:39;;;;;;;;;;;;;;;16.60;33.91;100844.97;5074335;28;19916;-67
2023/05/02 10:49:09;;;;;;;;;;;;;;;16.59;34.02;100843.31;5074049;28;19920;-69
2023/05/02 10:51:35;;;;;;;;;;;;;;;16.59;33.95;100834.41;5074171;28;19960;-67
2023/05/02 10:54:15;;;;;;;;;;;;;;;16.63;33.42;100828.44;5074119;28;19912;-71
2023/05/02 10:57:02;;;;;;;;;;;;;;;16.81;33.38;100817.16;5074097;28;20422;-67
2023/05/02 10:59:35;;;;;;;;;;;;;;;17.13;34.00;100807.50;5069404;28;20361;-68
2023/05/02 11:02:01;;;;;;;;;;;;;;;17.31;33.41;100817.66;5074231;28;19923;-69
2023/05/02 11:04:45;;;;;;;;;;;;;;;17.20;32.40;100800.28;5073159;28;19916;-68
2023/05/02 11:07:13;;;;;;;;;;;;;;;17.04;32.35;100806.84;5067203;28;19916;-66
2023/05/02 11:09:42;;;;;;;;;;;;;;;17.06;32.61;100798.59;5074019;28;19912;-71
2023/05/02 11:12:07;;;;;;;;;;;;;;;17.12;33.29;100791.56;5073553;28;20015;-68
2023/05/02 11:14:33;;;;;;;;;;;;;;;17.25;33.35;100787.03;5072319;28;19959;-68
2023/05/02 11:16:58;;;;;;;;;;;;;;;17.30;32.65;100797.16;5073870;28;19997;-69
2023/05/02 11:19:27;;;;;;;;;;;;;;;17.34;32.17;100791.16;5073600;28;19971;-67
2023/05/02 11:22:13;;;;;;;;;;;;;;;17.36;32.94;100784.78;5072789;28;20388;-70
2023/05/02 11:24:43;;;;;;;;;;;;;;;17.16;32.71;100777.50;5071638;28;19917;-69
2023/05/02 11:27:27;;;;;;;;;;;;;;;17.13;32.27;100771.69;5070472;28;20017;-67
2023/05/02 11:29:55;;;;;;;;;;;;;;;17.16;32.88;100765.91;5070675;28;19967;-67
2023/05/02 11:32:21;;;;;;;;;;;;;;;17.28;31.94;100780.41;5073079;28;19913;-67
2023/05/02 11:34:49;;;;;;;;;;;;;;;17.19;32.41;100757.41;5072556;28;19912;-71
2023/05/02 11:37:15;;;;;;;;;;;;;;;17.17;32.68;100754.94;5072966;28;20012;-68
2023/05/02 11:39:41;;;;;;;;;;;;;;;17.25;32.28;100754.72;5073233;28;19971;-69
2023/05/02 11:42:06;;;;;;;;;;;;;;;17.32;32.14;100757.41;5073274;28;19931;-70
2023/05/02 11:44:31;;;;;;;;;;;;;;;17.34;32.11;100750.78;5072523;28;20065;-69
2023/05/02 11:46:57;;;;;;;;;;;;;;;17.41;31.68;100740.03;5073088;28;20361;-67
2023/05/02 11:55:52;;;;;;;;;;;;;;;17.54;31.09;100741.88;5069933;28;20286;-68
2023/05/02 11:58:18;;;;;;;;;;;;;;;17.44;30.56;100741.50;5071673;28;19912;-67
2023/05/02 12:00:47;;;;;;;;;;;;;;;17.33;30.80;100718.69;5070537;28;19924;-67
2023/05/02 12:03:21;;;;;;;;;;;;;;;17.31;30.87;100734.22;5072205;28;19916;-67
2023/05/02 12:05:50;;;;;;;;;;;;;;;17.35;29.96;100730.13;5072430;28;20015;-68
2023/05/02 12:08:33;;;;;;;;;;;;;;;17.42;30.32;100727.41;5071848;28;19999;-69
2023/05/02 12:10:58;;;;;;;;;;;;;;;17.52;30.09;100717.84;5069833;28;19935;-67
2023/05/02 12:13:25;;;;;;;;;;;;;;;17.60;30.40;100720.31;5072478;28;20356;-67
2023/05/02 12:15:52;;;;;;;;;;;;;;;17.83;31.40;100713.69;5072041;28;19969;-67
2023/05/02 12:18:18;;;;;;;;;;;;;;;17.89;30.37;100702.88;5072129;28;19916;-69
2023/05/02 12:20:44;;;;;;;;;;;;;;;17.95;30.43;100709.31;5072188;28;19916;-72
2023/05/02 12:23:10;;;;;;;;;;;;;;;17.78;29.98;100695.47;5072235;28;20062;-69
2023/05/02 12:25:37;;;;;;;;;;;;;;;17.88;31.38;100695.03;5072231;28;19974;-68
2023/05/02 12:28:03;;;;;;;;;;;;;;;18.03;30.64;100690.22;5071935;28;19912;-69
2023/05/02 12:30:29;;;;;;;;;;;;;;;18.12;29.44;100688.94;5072001;28;20268;-69
2023/05/02 12:33:03;;;;;;;;;;;;;;;18.06;29.97;100684.41;5071866;28;20014;-69
2023/05/02 12:35:30;;;;;;;;;;;;;;;18.00;29.36;100674.47;5069688;28;20463;-66
2023/05/02 12:38:07;;;;;;;;;;;;;;;17.99;30.08;100675.53;5072003;28;19947;-68
2023/05/02 12:40:32;;;;;;;;;;;;;;;18.02;29.66;100680.47;5070412;28;19912;-69
2023/05/02 12:43:05;;;;;;;;;;;;;;;18.04;29.70;100673.00;5072333;28;20301;-67
2023/05/02 12:45:34;;;;;;;;;;;;;;;18.01;29.71;100667.22;5069218;28;19917;-68
2023/05/02 12:48:20;;;;;;;;;;;;;;;18.03;30.47;100671.34;5072067;28;19916;-71